createdAt,value
2023-05-24T00:01:00.305Z,17.10
2023-05-24T00:03:30.892Z,17.00
2023-05-24T00:06:00.861Z,17.00
2023-05-24T00:08:28.972Z,17.00
2023-05-24T00:10:57.035Z,17.00
2023-05-24T00:13:25.187Z,17.00
2023-05-24T00:15:53.624Z,17.20
2023-05-24T00:18:21.738Z,17.00
2023-05-24T00:20:51.891Z,17.10
2023-05-24T00:23:21.598Z,17.00
2023-05-24T00:25:49.846Z,17.00
2023-05-24T00:28:18.096Z,17.00
2023-05-24T00:30:47.832Z,17.00
2023-05-24T00:33:16.066Z,17.00
2023-05-24T00:35:44.461Z,17.00
2023-05-24T00:38:12.616Z,17.00
2023-05-24T00:40:42.377Z,16.90
2023-05-24T00:43:11.503Z,16.90
2023-05-24T00:45:39.791Z,17.00
2023-05-24T00:48:08.401Z,16.90
2023-05-24T00:50:37.537Z,16.90
2023-05-24T00:53:05.891Z,16.90
2023-05-24T00:55:36.697Z,16.90
2023-05-24T00:58:06.397Z,16.90
2023-05-24T01:00:34.702Z,16.90
2023-05-24T01:03:03.398Z,16.80
2023-05-24T01:05:32.058Z,16.80
2023-05-24T01:08:09.906Z,16.80
2023-05-24T01:10:46.648Z,16.80
2023-05-24T01:13:25.592Z,16.80
2023-05-24T01:16:02.527Z,16.80
2023-05-24T01:18:34.890Z,16.70
2023-05-24T01:21:17.294Z,16.80
2023-05-24T01:23:59.137Z,16.80
2023-05-24T01:26:38.315Z,16.80
2023-05-24T01:29:08.559Z,16.70
2023-05-24T01:34:08.125Z,16.80
2023-05-24T01:36:36.384Z,16.70
2023-05-24T01:39:05.698Z,16.80
2023-05-24T01:41:41.240Z,16.70
2023-05-24T01:44:19.654Z,16.60
2023-05-24T01:46:55.003Z,16.60
2023-05-24T01:49:28.257Z,16.80
2023-05-24T01:52:01.155Z,16.60
2023-05-24T01:54:34.712Z,16.70
2023-05-24T01:57:08.280Z,16.60
2023-05-24T01:59:41.063Z,16.70
2023-05-24T02:02:09.472Z,16.70
2023-05-24T02:04:37.897Z,16.70
2023-05-24T02:07:06.461Z,16.60
2023-05-24T02:09:34.934Z,16.60
2023-05-24T02:14:32.152Z,16.60
2023-05-24T02:17:02.960Z,16.50
2023-05-24T02:19:31.378Z,16.50
2023-05-24T02:21:59.602Z,16.40
2023-05-24T02:24:27.886Z,16.70
2023-05-24T02:26:56.572Z,16.60
2023-05-24T02:29:25.491Z,16.30
2023-05-24T02:31:56.504Z,16.80
2023-05-24T02:34:26.294Z,16.50
2023-05-24T02:36:55.958Z,16.50
2023-05-24T02:41:52.879Z,16.30
2023-05-24T02:44:21.244Z,16.60
2023-05-24T02:46:49.444Z,16.00
2023-05-24T02:49:17.668Z,16.70
2023-05-24T02:51:47.168Z,17.20
2023-05-24T02:54:17.736Z,16.60
2023-05-24T02:59:17.648Z,16.80
2023-05-24T03:01:46.284Z,16.60
2023-05-24T03:06:43.047Z,16.60
2023-05-24T03:11:41.335Z,17.10
2023-05-24T03:16:42.049Z,16.40
2023-05-24T03:19:10.536Z,16.70
2023-05-24T03:21:39.316Z,17.30
2023-05-24T03:24:09.652Z,16.50
2023-05-24T03:26:39.229Z,16.70
2023-05-24T03:29:07.676Z,17.00
2023-05-24T03:31:40.310Z,16.80
2023-05-24T03:34:08.970Z,16.90
2023-05-24T03:36:39.276Z,17.40
2023-05-24T03:39:07.927Z,17.00
2023-05-24T03:41:51.544Z,17.20
2023-05-24T03:46:48.494Z,16.90
2023-05-24T03:51:45.216Z,17.20
2023-05-24T03:54:13.519Z,17.60
2023-05-24T03:56:43.059Z,17.20
2023-05-24T03:59:12.749Z,17.40
2023-05-24T04:01:41.004Z,17.60
2023-05-24T04:04:09.844Z,17.40
2023-05-24T04:06:38.294Z,17.40
2023-05-24T04:11:36.290Z,17.40
2023-05-24T04:14:04.979Z,17.80
2023-05-24T04:16:34.907Z,17.40
2023-05-24T04:21:36.759Z,17.10
2023-05-24T04:24:05.243Z,17.00
2023-05-24T04:26:34.433Z,17.00
2023-05-24T04:29:03.727Z,17.00
2023-05-24T04:34:04.478Z,17.50
2023-05-24T04:36:34.007Z,17.20
2023-05-24T04:39:05.172Z,17.10
2023-05-24T04:41:35.404Z,17.10
2023-05-24T04:44:03.981Z,17.20
2023-05-24T04:46:32.478Z,17.70
2023-05-24T04:51:31.828Z,17.70
2023-05-24T04:54:01.491Z,17.50
2023-05-24T04:56:29.830Z,17.20
2023-05-24T04:58:57.981Z,17.10
2023-05-24T05:01:26.287Z,17.70
2023-05-24T05:06:23.236Z,17.30
2023-05-24T05:08:53.054Z,17.40
2023-05-24T05:11:21.322Z,17.50
2023-05-24T05:13:49.430Z,17.80
2023-05-24T05:16:18.062Z,17.70
2023-05-24T05:18:46.268Z,17.90
2023-05-24T05:23:42.943Z,18.70
2023-05-24T05:26:13.021Z,19.00
2023-05-24T05:28:41.210Z,19.60
2023-05-24T05:31:09.422Z,19.90
2023-05-24T05:33:37.676Z,19.70
2023-05-24T05:36:06.488Z,19.80
2023-05-24T05:38:34.608Z,19.80
2023-05-24T05:41:02.868Z,20.00
2023-05-24T05:43:32.774Z,20.30
2023-05-24T05:46:01.658Z,20.00
2023-05-24T05:48:29.906Z,20.20
2023-05-24T05:50:58.150Z,20.00
2023-05-24T05:53:28.640Z,20.00
2023-05-24T05:55:57.531Z,19.70
2023-05-24T05:58:25.643Z,19.70
2023-05-24T06:00:55.220Z,19.80
2023-05-24T06:03:23.589Z,19.70
2023-05-24T06:05:51.982Z,19.60
2023-05-24T06:10:50.145Z,20.00
2023-05-24T06:13:20.357Z,20.10
2023-05-24T06:15:48.529Z,20.40
2023-05-24T06:18:18.247Z,20.80
2023-05-24T06:20:46.505Z,20.80
2023-05-24T06:25:44.001Z,20.90
2023-05-24T06:28:12.211Z,21.40
2023-05-24T06:30:40.579Z,21.30
2023-05-24T06:33:09.205Z,21.20
2023-05-24T06:35:38.762Z,21.20
2023-05-24T06:40:35.446Z,21.00
2023-05-24T06:43:03.598Z,21.00
2023-05-24T06:45:33.294Z,20.80
2023-05-24T06:48:02.057Z,21.40
2023-05-24T06:50:30.322Z,21.30
2023-05-24T06:52:59.870Z,21.40
2023-05-24T07:00:25.282Z,21.30
2023-05-24T07:02:53.655Z,21.70
2023-05-24T07:05:22.288Z,21.00
2023-05-24T07:07:50.502Z,21.80
2023-05-24T07:10:20.189Z,21.60
2023-05-24T07:12:48.333Z,21.80
2023-05-24T07:15:16.492Z,21.80
2023-05-24T07:17:44.997Z,22.10
2023-05-24T07:20:14.136Z,22.50
2023-05-24T07:22:43.269Z,22.50
2023-05-24T07:25:11.803Z,22.80
2023-05-24T07:27:41.410Z,22.90
2023-05-24T07:30:23.632Z,22.70
2023-05-24T07:32:58.556Z,23.20
2023-05-24T07:35:27.101Z,23.50
2023-05-24T07:37:55.278Z,23.50
2023-05-24T07:40:23.587Z,23.70
2023-05-24T07:42:53.276Z,23.90
2023-05-24T07:47:50.370Z,24.10
2023-05-24T07:50:19.301Z,24.30
2023-05-24T07:52:47.485Z,24.30
2023-05-24T07:57:44.275Z,23.90
2023-05-24T08:00:16.475Z,23.90
2023-05-24T08:02:46.609Z,23.40
2023-05-24T08:05:15.492Z,23.30
2023-05-24T08:07:43.796Z,22.60
2023-05-24T08:10:13.888Z,23.00
2023-05-24T08:12:42.515Z,23.60
2023-05-24T08:15:11.353Z,22.80
2023-05-24T08:17:41.310Z,22.90
2023-05-24T08:20:13.809Z,23.10
2023-05-24T08:22:42.503Z,24.20
2023-05-24T08:25:11.199Z,24.50
2023-05-24T08:27:39.477Z,24.70
2023-05-24T08:30:08.902Z,24.60
2023-05-24T08:32:38.465Z,24.90
2023-05-24T08:37:49.294Z,25.80
2023-05-24T08:40:18.369Z,25.00
2023-05-24T08:42:47.031Z,25.10
2023-05-24T08:45:16.528Z,25.00
2023-05-24T08:50:15.138Z,24.90
2023-05-24T08:52:45.116Z,24.70
2023-05-24T08:55:13.341Z,24.80
2023-05-24T08:57:42.087Z,25.10
2023-05-24T09:00:12.847Z,25.30
2023-05-24T09:02:43.083Z,25.60
2023-05-24T09:05:14.528Z,25.70
2023-05-24T09:07:46.326Z,25.50
2023-05-24T09:10:14.859Z,25.50
2023-05-24T09:12:49.773Z,26.00
2023-05-24T09:15:18.301Z,26.50
2023-05-24T09:17:46.664Z,26.50
2023-05-24T09:20:15.627Z,26.90
2023-05-24T09:22:46.446Z,26.70
2023-05-24T09:25:16.190Z,27.30
2023-05-24T09:27:47.483Z,27.40
2023-05-24T09:30:17.314Z,26.90
2023-05-24T09:32:57.784Z,27.60
2023-05-24T09:35:27.055Z,27.10
2023-05-24T09:38:00.895Z,27.40
2023-05-24T09:40:30.887Z,27.80
2023-05-24T09:43:07.422Z,28.20
2023-05-24T09:45:42.917Z,28.40
2023-05-24T09:48:15.720Z,28.80
2023-05-24T09:50:45.795Z,28.00
2023-05-24T09:53:18.813Z,28.40
2023-05-24T09:55:47.020Z,29.20
2023-05-24T09:58:16.869Z,29.50
2023-05-24T10:00:45.591Z,30.20
2023-05-24T10:03:15.295Z,29.90
2023-05-24T10:05:45.889Z,29.40
2023-05-24T10:08:18.353Z,28.70
2023-05-24T10:10:47.910Z,28.40
2023-05-24T10:13:18.619Z,28.70
2023-05-24T10:15:47.064Z,27.80
2023-05-24T10:18:15.538Z,27.50
2023-05-24T10:20:44.365Z,28.20
2023-05-24T10:23:20.905Z,27.90
2023-05-24T10:25:53.909Z,27.10
2023-05-24T10:28:24.733Z,26.50
2023-05-24T10:31:02.872Z,27.30
2023-05-24T10:33:33.635Z,26.60
2023-05-24T10:36:02.025Z,26.80
2023-05-24T10:38:31.893Z,26.50
2023-05-24T10:41:00.340Z,25.80
2023-05-24T10:43:28.723Z,26.70
2023-05-24T10:45:57.069Z,25.70
2023-05-24T10:48:42.805Z,26.40
2023-05-24T10:51:37.141Z,26.60
2023-05-24T10:54:20.752Z,26.40
2023-05-24T10:56:52.291Z,25.70
2023-05-24T10:59:35.006Z,26.00
2023-05-24T11:02:03.970Z,26.30
2023-05-24T11:04:34.219Z,26.00
2023-05-24T11:07:04.626Z,26.20
2023-05-24T11:09:35.012Z,26.10
2023-05-24T11:12:08.431Z,26.60
2023-05-24T11:14:39.575Z,26.90
2023-05-24T11:17:08.412Z,26.70
2023-05-24T11:19:38.419Z,26.90
2023-05-24T11:22:09.405Z,26.80
2023-05-24T11:24:39.383Z,27.30
2023-05-24T11:27:08.056Z,25.90
2023-05-24T11:29:42.637Z,26.00
2023-05-24T11:32:11.198Z,25.70
2023-05-24T11:34:40.121Z,25.50
2023-05-24T11:37:08.367Z,25.20
2023-05-24T11:39:39.490Z,25.60
2023-05-24T11:42:08.867Z,25.40
2023-05-24T11:44:39.230Z,25.60
2023-05-24T11:47:09.015Z,25.80
2023-05-24T11:49:37.589Z,26.30
2023-05-24T11:52:06.554Z,26.50
2023-05-24T11:54:35.116Z,26.50
2023-05-24T11:57:06.095Z,26.30
2023-05-24T11:59:37.983Z,26.40
2023-05-24T12:02:08.071Z,26.50
2023-05-24T12:04:36.647Z,26.40
2023-05-24T12:07:05.323Z,26.50
2023-05-24T12:09:33.519Z,26.40
2023-05-24T12:12:02.061Z,26.20
2023-05-24T12:14:34.609Z,26.30
2023-05-24T12:17:03.073Z,26.30
2023-05-24T12:19:35.164Z,25.90
2023-05-24T12:22:06.368Z,25.70
2023-05-24T12:24:35.545Z,25.70
2023-05-24T12:27:06.824Z,25.80
2023-05-24T12:29:37.941Z,25.80
2023-05-24T12:32:11.973Z,26.10
2023-05-24T12:34:43.893Z,25.80
2023-05-24T12:37:13.608Z,25.50
2023-05-24T12:39:43.369Z,25.80
2023-05-24T12:42:13.455Z,26.10
2023-05-24T12:44:45.141Z,26.60
2023-05-24T12:47:13.631Z,27.10
2023-05-24T12:49:41.897Z,27.60
2023-05-24T12:52:10.162Z,27.50
2023-05-24T12:54:38.684Z,27.80
2023-05-24T12:57:07.542Z,28.60
2023-05-24T12:59:35.756Z,27.80
2023-05-24T13:02:05.439Z,28.10
2023-05-24T13:04:34.003Z,27.50
2023-05-24T13:07:04.070Z,27.20
2023-05-24T13:09:33.292Z,27.30
2023-05-24T13:12:01.815Z,26.60
2023-05-24T13:14:30.028Z,26.40
2023-05-24T13:16:58.511Z,26.30
2023-05-24T13:19:28.125Z,26.10
2023-05-24T13:21:56.325Z,26.00
2023-05-24T13:24:24.534Z,25.60
2023-05-24T13:26:54.928Z,25.50
2023-05-24T13:31:54.983Z,25.20
2023-05-24T13:34:24.622Z,25.30
2023-05-24T13:36:54.529Z,25.10
2023-05-24T13:39:23.953Z,25.00
2023-05-24T13:41:52.251Z,26.00
2023-05-24T13:44:20.639Z,24.90
2023-05-24T13:46:48.940Z,24.60
2023-05-24T13:49:17.350Z,24.60
2023-05-24T13:51:45.713Z,24.80
2023-05-24T13:54:15.457Z,24.80
2023-05-24T13:56:44.981Z,25.20
2023-05-24T13:59:13.327Z,25.40
2023-05-24T14:01:41.725Z,25.40
2023-05-24T14:04:09.963Z,25.20
2023-05-24T14:06:38.795Z,25.50
2023-05-24T14:09:08.485Z,26.40
2023-05-24T14:11:38.242Z,25.50
2023-05-24T14:16:37.858Z,25.70
2023-05-24T14:19:06.329Z,25.60
2023-05-24T14:21:34.588Z,25.80
2023-05-24T14:24:02.757Z,25.40
2023-05-24T14:26:34.208Z,25.30
2023-05-24T14:29:03.953Z,25.50
2023-05-24T14:31:33.653Z,25.40
2023-05-24T14:34:01.955Z,25.30
2023-05-24T14:36:33.192Z,25.20
2023-05-24T14:39:01.683Z,24.90
2023-05-24T14:41:30.100Z,24.60
2023-05-24T14:43:58.351Z,25.20
2023-05-24T14:46:28.171Z,24.90
2023-05-24T14:48:56.597Z,25.00
2023-05-24T14:51:24.754Z,24.60
2023-05-24T14:53:53.057Z,24.60
2023-05-24T14:56:21.267Z,24.60
2023-05-24T14:58:49.537Z,24.70
2023-05-24T15:01:17.738Z,24.70
2023-05-24T15:03:47.568Z,24.50
2023-05-24T15:06:15.922Z,24.50
2023-05-24T15:08:44.136Z,24.60
2023-05-24T15:11:12.459Z,24.70
2023-05-24T15:13:40.769Z,24.50
2023-05-24T15:16:09.228Z,24.40
2023-05-24T15:18:37.410Z,24.40
2023-05-24T15:21:07.115Z,24.30
2023-05-24T15:23:35.442Z,24.30
2023-05-24T15:26:03.589Z,24.30
2023-05-24T15:28:31.754Z,24.30
2023-05-24T15:31:01.794Z,24.40
2023-05-24T15:33:30.151Z,24.50
2023-05-24T15:35:58.434Z,24.90
2023-05-24T15:38:28.050Z,25.10
2023-05-24T15:40:56.547Z,25.10
2023-05-24T15:43:24.820Z,25.40
2023-05-24T15:45:53.646Z,25.50
2023-05-24T15:48:22.722Z,25.10
2023-05-24T15:53:22.195Z,24.90
2023-05-24T15:55:52.035Z,24.90
2023-05-24T15:58:20.203Z,25.00
2023-05-24T16:03:17.110Z,24.70
2023-05-24T16:05:45.361Z,24.60
2023-05-24T16:08:16.111Z,24.40
2023-05-24T16:10:45.213Z,23.90
2023-05-24T16:13:14.885Z,23.70
2023-05-24T16:15:47.602Z,23.40
2023-05-24T16:18:18.182Z,23.50
2023-05-24T16:20:46.785Z,23.40
2023-05-24T16:23:15.332Z,23.30
2023-05-24T16:25:45.122Z,23.20
2023-05-24T16:28:14.706Z,22.80
2023-05-24T16:30:43.913Z,22.80
2023-05-24T16:33:12.288Z,22.80
2023-05-24T16:35:40.650Z,23.00
2023-05-24T16:38:08.846Z,22.70
2023-05-24T16:40:37.086Z,22.40
2023-05-24T16:43:05.526Z,22.70
2023-05-24T16:45:35.246Z,22.40
2023-05-24T16:48:03.738Z,22.20
2023-05-24T16:50:32.218Z,21.90
2023-05-24T16:53:00.540Z,22.00
2023-05-24T16:55:29.653Z,21.70
2023-05-24T16:57:57.832Z,21.80
2023-05-24T17:00:26.207Z,21.80
2023-05-24T17:02:59.281Z,21.60
2023-05-24T17:05:27.860Z,21.20
2023-05-24T17:07:56.960Z,21.50
2023-05-24T17:10:25.176Z,21.50
2023-05-24T17:12:53.475Z,21.40
2023-05-24T17:15:21.653Z,21.10
2023-05-24T17:17:49.999Z,20.90
2023-05-24T17:20:19.778Z,21.10
2023-05-24T17:22:49.638Z,21.00
2023-05-24T17:25:18.318Z,21.00
2023-05-24T17:27:46.613Z,21.00
2023-05-24T17:30:15.195Z,20.90
2023-05-24T17:32:43.344Z,20.70
2023-05-24T17:35:11.624Z,20.30
2023-05-24T17:37:41.739Z,20.30
2023-05-24T17:40:11.418Z,20.40
2023-05-24T17:42:40.246Z,20.20
2023-05-24T17:45:09.766Z,20.10
2023-05-24T17:47:37.990Z,20.10
2023-05-24T17:50:07.208Z,19.90
2023-05-24T17:52:35.453Z,19.90
2023-05-24T17:55:05.408Z,19.70
2023-05-24T17:57:33.751Z,19.80
2023-05-24T18:00:02.165Z,19.50
2023-05-24T18:02:30.373Z,19.90
2023-05-24T18:04:58.817Z,19.70
2023-05-24T18:07:28.428Z,19.60
2023-05-24T18:09:59.444Z,19.10
2023-05-24T18:12:30.680Z,19.30
2023-05-24T18:19:57.007Z,18.60
2023-05-24T18:22:25.220Z,18.80
2023-05-24T18:24:53.385Z,18.60
2023-05-24T18:27:21.620Z,18.70
2023-05-24T18:29:51.764Z,18.60
2023-05-24T18:32:20.048Z,18.70
2023-05-24T18:34:48.248Z,18.10
2023-05-24T18:37:16.777Z,18.00
2023-05-24T18:39:45.111Z,17.90
2023-05-24T18:42:13.729Z,17.80
2023-05-24T18:44:41.947Z,17.80
2023-05-24T18:47:12.517Z,17.70
2023-05-24T18:49:42.342Z,17.70
2023-05-24T18:52:10.556Z,17.70
2023-05-24T18:54:39.099Z,17.70
2023-05-24T18:57:07.679Z,17.70
2023-05-24T18:59:37.265Z,17.50
2023-05-24T19:02:06.173Z,17.50
2023-05-24T19:04:35.724Z,17.60
2023-05-24T19:07:04.235Z,17.60
2023-05-24T19:09:32.388Z,17.50
2023-05-24T19:12:04.560Z,17.40
2023-05-24T19:14:32.838Z,17.40
2023-05-24T19:17:01.240Z,17.40
2023-05-24T19:19:30.554Z,17.30
2023-05-24T19:22:00.191Z,17.30
2023-05-24T19:24:28.384Z,17.20
2023-05-24T19:26:56.992Z,17.10
2023-05-24T19:29:25.242Z,17.00
2023-05-24T19:31:53.499Z,16.90
2023-05-24T19:34:21.727Z,17.00
2023-05-24T19:36:49.889Z,16.90
2023-05-24T19:39:19.507Z,16.80
2023-05-24T19:41:47.774Z,16.90
2023-05-24T19:44:16.038Z,16.70
2023-05-24T19:46:44.630Z,16.70
2023-05-24T19:49:13.281Z,16.60
2023-05-24T19:51:41.356Z,16.60
2023-05-24T19:54:10.107Z,16.50
2023-05-24T19:56:39.855Z,16.40
2023-05-24T19:59:08.408Z,16.40
2023-05-24T20:01:36.894Z,16.30
2023-05-24T20:04:05.405Z,16.20
2023-05-24T20:06:33.950Z,16.20
2023-05-24T20:09:03.717Z,16.30
2023-05-24T20:11:32.003Z,15.80
2023-05-24T20:14:01.645Z,16.10
2023-05-24T20:16:30.934Z,16.10
2023-05-24T20:18:59.251Z,16.00
2023-05-24T20:21:27.509Z,16.00
2023-05-24T20:23:58.874Z,15.90
2023-05-24T20:26:27.439Z,15.90
2023-05-24T20:28:55.716Z,15.70
2023-05-24T20:31:25.617Z,15.70
2023-05-24T20:33:53.907Z,15.70
2023-05-24T20:36:22.186Z,15.60
2023-05-24T20:38:50.377Z,15.60
2023-05-24T20:41:18.725Z,15.50
2023-05-24T20:43:47.236Z,15.50
2023-05-24T20:46:15.760Z,15.50
2023-05-24T20:48:45.363Z,15.40
2023-05-24T20:51:13.646Z,15.40
2023-05-24T20:53:41.755Z,15.40
2023-05-24T20:56:10.147Z,15.40
2023-05-24T20:58:39.848Z,15.40
2023-05-24T21:01:08.839Z,16.80
2023-05-24T21:03:37.257Z,15.40
2023-05-24T21:06:07.018Z,15.40
2023-05-24T21:08:35.219Z,13.80
2023-05-24T21:11:03.504Z,15.40
2023-05-24T21:13:31.677Z,15.30
2023-05-24T21:15:59.911Z,15.40
2023-05-24T21:18:28.114Z,15.40
2023-05-24T21:20:56.309Z,15.30
2023-05-24T21:23:26.053Z,15.30
2023-05-24T21:25:54.452Z,15.20
2023-05-24T21:28:22.577Z,15.40
2023-05-24T21:30:50.966Z,15.30
2023-05-24T21:33:19.179Z,15.00
2023-05-24T21:35:47.538Z,15.30
2023-05-24T21:38:15.674Z,15.30
2023-05-24T21:40:45.559Z,15.30
2023-05-24T21:43:13.746Z,15.30
2023-05-24T21:45:42.501Z,15.20
2023-05-24T21:48:11.052Z,15.20
2023-05-24T21:50:39.457Z,15.30
2023-05-24T21:53:07.626Z,15.10
2023-05-24T21:55:36.347Z,15.10
2023-05-24T21:58:05.855Z,15.00
2023-05-24T22:00:34.067Z,15.00
2023-05-24T22:03:04.846Z,15.00
2023-05-24T22:05:33.082Z,15.00
2023-05-24T22:08:01.308Z,15.00
2023-05-24T22:10:29.605Z,15.00
2023-05-24T22:12:57.786Z,14.90
2023-05-24T22:15:28.321Z,14.90
2023-05-24T22:17:58.553Z,14.70
2023-05-24T22:20:27.617Z,14.80
2023-05-24T22:22:55.904Z,14.80
2023-05-24T22:25:24.037Z,14.70
2023-05-24T22:27:53.340Z,14.70
2023-05-24T22:30:21.609Z,14.60
2023-05-24T22:32:51.533Z,14.60
2023-05-24T22:35:20.066Z,14.50
2023-05-24T22:40:17.496Z,14.40
2023-05-24T22:42:45.764Z,14.40
2023-05-24T22:45:14.021Z,13.90
2023-05-24T22:50:12.454Z,14.20
2023-05-24T22:52:42.689Z,14.20
2023-05-24T22:55:11.270Z,14.10
2023-05-24T22:57:39.493Z,14.10
2023-05-24T23:00:09.002Z,14.10
2023-05-24T23:05:07.207Z,14.00
2023-05-24T23:07:38.053Z,13.90
2023-05-24T23:12:36.718Z,13.60
2023-05-24T23:15:05.240Z,13.80
2023-05-24T23:17:33.491Z,14.00
2023-05-24T23:20:03.026Z,13.60
2023-05-24T23:22:31.253Z,13.60
2023-05-24T23:25:00.806Z,13.50
2023-05-24T23:29:57.698Z,13.80
2023-05-24T23:34:54.600Z,13.60
2023-05-24T23:37:22.724Z,13.60
2023-05-24T23:39:51.243Z,13.70
2023-05-24T23:42:20.700Z,13.10
2023-05-24T23:44:48.873Z,13.30
2023-05-24T23:47:17.119Z,13.10
2023-05-24T23:49:45.302Z,13.30
2023-05-24T23:52:13.448Z,13.30
2023-05-24T23:54:41.994Z,13.20
2023-05-24T23:57:10.098Z,13.20
2023-05-24T23:59:39.733Z,13.10
